createdAt,value
2023-05-11T00:00:38.206Z,18.21
2023-05-11T00:01:38.182Z,18.20
2023-05-11T00:02:38.288Z,18.24
2023-05-11T00:03:38.281Z,18.18
2023-05-11T00:04:38.392Z,18.18
2023-05-11T00:05:38.152Z,18.11
2023-05-11T00:06:38.142Z,18.18
2023-05-11T00:07:38.114Z,18.13
2023-05-11T00:08:38.109Z,18.03
2023-05-11T00:09:38.143Z,18.05
2023-05-11T00:10:38.088Z,18.06
2023-05-11T00:11:38.086Z,18.03
2023-05-11T00:12:38.067Z,17.99
2023-05-11T00:13:38.047Z,18.05
2023-05-11T00:14:38.061Z,18.02
2023-05-11T00:15:38.064Z,17.97
2023-05-11T00:16:38.023Z,17.97
2023-05-11T00:17:38.053Z,17.96
2023-05-11T00:18:38.023Z,17.97
2023-05-11T00:19:38.016Z,17.93
2023-05-11T00:20:37.980Z,17.87
2023-05-11T00:21:37.961Z,17.84
2023-05-11T00:22:37.956Z,17.83
2023-05-11T00:23:37.950Z,17.83
2023-05-11T00:24:37.976Z,17.86
2023-05-11T00:25:37.949Z,17.78
2023-05-11T00:26:37.921Z,17.84
2023-05-11T00:27:37.937Z,17.78
2023-05-11T00:28:37.897Z,17.84
2023-05-11T00:29:37.890Z,17.73
2023-05-11T00:30:37.868Z,17.68
2023-05-11T00:31:37.872Z,17.81
2023-05-11T00:32:37.923Z,17.68
2023-05-11T00:33:37.832Z,17.66
2023-05-11T00:34:37.862Z,17.66
2023-05-11T00:35:37.809Z,17.71
2023-05-11T00:36:37.798Z,17.63
2023-05-11T00:37:37.789Z,17.57
2023-05-11T00:38:37.812Z,17.62
2023-05-11T00:39:37.766Z,17.49
2023-05-11T00:40:37.760Z,17.46
2023-05-11T00:41:37.769Z,17.49
2023-05-11T00:42:37.755Z,17.49
2023-05-11T00:43:37.776Z,17.45
2023-05-11T00:44:37.715Z,17.47
2023-05-11T00:45:37.701Z,17.50
2023-05-11T00:46:37.775Z,17.47
2023-05-11T00:47:37.735Z,17.47
2023-05-11T00:48:37.704Z,17.45
2023-05-11T00:49:37.666Z,17.43
2023-05-11T00:50:37.651Z,17.41
2023-05-11T00:51:37.642Z,17.47
2023-05-11T00:52:37.626Z,17.37
2023-05-11T00:53:37.620Z,17.39
2023-05-11T00:54:37.643Z,17.39
2023-05-11T00:55:37.598Z,17.35
2023-05-11T00:56:37.587Z,17.38
2023-05-11T00:57:37.589Z,17.34
2023-05-11T00:58:37.565Z,17.28
2023-05-11T00:59:37.575Z,17.27
2023-05-11T01:00:37.607Z,17.25
2023-05-11T01:01:37.532Z,17.20
2023-05-11T01:02:37.629Z,17.27
2023-05-11T01:03:37.506Z,17.25
2023-05-11T01:04:37.520Z,17.17
2023-05-11T01:05:37.488Z,17.22
2023-05-11T01:06:37.484Z,17.16
2023-05-11T01:07:37.472Z,17.12
2023-05-11T01:08:37.457Z,17.17
2023-05-11T01:09:37.467Z,17.12
2023-05-11T01:10:37.438Z,17.07
2023-05-11T01:11:37.447Z,17.09
2023-05-11T01:12:37.427Z,17.10
2023-05-11T01:13:37.464Z,17.02
2023-05-11T01:14:37.420Z,17.04
2023-05-11T01:15:37.399Z,17.10
2023-05-11T01:16:37.424Z,17.12
2023-05-11T01:17:37.385Z,17.06
2023-05-11T01:18:37.456Z,17.02
2023-05-11T01:19:37.345Z,16.99
2023-05-11T01:20:37.337Z,16.97
2023-05-11T01:21:37.335Z,16.98
2023-05-11T01:22:37.313Z,16.98
2023-05-11T01:23:37.305Z,16.95
2023-05-11T01:24:37.292Z,16.95
2023-05-11T01:25:37.300Z,16.88
2023-05-11T01:26:37.295Z,16.84
2023-05-11T01:27:37.257Z,16.84
2023-05-11T01:28:37.247Z,16.88
2023-05-11T01:29:37.260Z,16.88
2023-05-11T01:30:37.244Z,16.77
2023-05-11T01:31:37.261Z,16.77
2023-05-11T01:32:38.395Z,16.73
2023-05-11T01:33:37.194Z,16.74
2023-05-11T01:34:37.179Z,16.80
2023-05-11T01:35:37.188Z,16.73
2023-05-11T01:36:37.187Z,16.77
2023-05-11T01:37:37.143Z,16.76
2023-05-11T01:38:37.135Z,16.74
2023-05-11T01:39:37.131Z,16.69
2023-05-11T01:40:37.126Z,16.70
2023-05-11T01:41:37.136Z,16.65
2023-05-11T01:42:37.096Z,16.65
2023-05-11T01:43:37.081Z,16.69
2023-05-11T01:44:37.068Z,16.69
2023-05-11T01:45:37.076Z,16.64
2023-05-11T01:46:37.215Z,16.67
2023-05-11T01:47:37.067Z,16.69
2023-05-11T01:48:37.027Z,16.69
2023-05-11T01:49:37.010Z,16.64
2023-05-11T01:50:37.016Z,16.61
2023-05-11T01:51:37.704Z,16.55
2023-05-11T01:52:36.984Z,16.51
2023-05-11T01:53:36.965Z,16.51
2023-05-11T01:54:36.988Z,16.47
2023-05-11T01:55:36.970Z,16.54
2023-05-11T01:56:36.936Z,16.51
2023-05-11T01:57:36.950Z,16.51
2023-05-11T01:58:36.918Z,16.52
2023-05-11T01:59:36.904Z,16.43
2023-05-11T02:00:36.924Z,16.43
2023-05-11T02:01:36.915Z,16.43
2023-05-11T02:02:37.033Z,16.40
2023-05-11T02:03:37.082Z,16.40
2023-05-11T02:04:36.845Z,16.37
2023-05-11T02:05:36.839Z,16.42
2023-05-11T02:06:36.827Z,16.39
2023-05-11T02:07:36.833Z,16.37
2023-05-11T02:08:36.797Z,16.42
2023-05-11T02:09:36.791Z,16.28
2023-05-11T02:10:36.783Z,16.32
2023-05-11T02:11:36.769Z,16.37
2023-05-11T02:12:36.778Z,16.28
2023-05-11T02:13:36.752Z,16.28
2023-05-11T02:14:36.753Z,16.28
2023-05-11T02:15:36.808Z,16.24
2023-05-11T02:16:36.744Z,16.17
2023-05-11T02:17:36.798Z,16.22
2023-05-11T02:18:36.764Z,16.16
2023-05-11T02:19:36.728Z,16.22
2023-05-11T02:20:36.669Z,16.21
2023-05-11T02:21:36.688Z,16.22
2023-05-11T02:22:36.649Z,16.10
2023-05-11T02:23:36.644Z,16.13
2023-05-11T02:24:36.658Z,16.09
2023-05-11T02:25:36.625Z,16.16
2023-05-11T02:26:36.610Z,16.02
2023-05-11T02:27:36.602Z,16.03
2023-05-11T02:28:36.602Z,16.06
2023-05-11T02:29:36.602Z,16.02
2023-05-11T02:30:36.567Z,16.06
2023-05-11T02:31:36.646Z,15.99
2023-05-11T02:32:36.595Z,15.96
2023-05-11T02:33:36.556Z,16.02
2023-05-11T02:34:36.531Z,15.98
2023-05-11T02:35:36.512Z,16.00
2023-05-11T02:36:36.504Z,15.99
2023-05-11T02:37:36.511Z,15.87
2023-05-11T02:38:36.500Z,15.83
2023-05-11T02:39:36.519Z,15.95
2023-05-11T02:40:36.487Z,15.87
2023-05-11T02:41:36.477Z,15.87
2023-05-11T02:42:36.447Z,15.85
2023-05-11T02:43:36.428Z,15.84
2023-05-11T02:44:36.411Z,15.85
2023-05-11T02:45:36.403Z,15.87
2023-05-11T02:46:36.460Z,15.80
2023-05-11T02:47:36.473Z,15.78
2023-05-11T02:48:36.376Z,15.81
2023-05-11T02:49:36.383Z,15.80
2023-05-11T02:50:36.347Z,15.77
2023-05-11T02:51:36.374Z,15.78
2023-05-11T02:52:36.324Z,15.81
2023-05-11T02:53:36.320Z,15.73
2023-05-11T02:54:36.302Z,15.68
2023-05-11T02:55:36.302Z,15.78
2023-05-11T02:56:36.304Z,15.68
2023-05-11T02:57:36.288Z,15.66
2023-05-11T02:58:36.280Z,15.65
2023-05-11T02:59:36.254Z,15.62
2023-05-11T03:00:36.269Z,15.65
2023-05-11T03:01:36.361Z,15.58
2023-05-11T03:02:36.239Z,15.59
2023-05-11T03:03:36.423Z,15.56
2023-05-11T03:04:36.193Z,15.62
2023-05-11T03:05:36.216Z,15.59
2023-05-11T03:06:36.202Z,15.54
2023-05-11T03:07:36.173Z,15.51
2023-05-11T03:08:36.163Z,15.54
2023-05-11T03:09:36.149Z,15.54
2023-05-11T03:10:36.128Z,15.56
2023-05-11T03:11:36.151Z,15.52
2023-05-11T03:12:36.108Z,15.48
2023-05-11T03:13:36.106Z,15.52
2023-05-11T03:14:36.108Z,15.36
2023-05-11T03:15:36.092Z,15.51
2023-05-11T03:16:36.134Z,15.52
2023-05-11T03:17:36.091Z,15.47
2023-05-11T03:18:36.127Z,15.45
2023-05-11T03:19:36.038Z,15.38
2023-05-11T03:20:36.053Z,15.36
2023-05-11T03:21:36.036Z,15.45
2023-05-11T03:22:36.001Z,15.47
2023-05-11T03:23:36.018Z,15.45
2023-05-11T03:24:35.988Z,15.40
2023-05-11T03:25:35.997Z,15.40
2023-05-11T03:26:35.977Z,15.47
2023-05-11T03:27:35.955Z,15.38
2023-05-11T03:28:35.973Z,15.32
2023-05-11T03:29:35.936Z,15.32
2023-05-11T03:30:35.923Z,15.29
2023-05-11T03:31:35.970Z,15.36
2023-05-11T03:32:35.945Z,15.36
2023-05-11T03:33:35.896Z,15.30
2023-05-11T03:34:35.895Z,15.29
2023-05-11T03:35:35.868Z,15.29
2023-05-11T03:36:35.855Z,15.22
2023-05-11T03:37:35.883Z,15.25
2023-05-11T03:38:35.829Z,15.30
2023-05-11T03:39:35.848Z,15.26
2023-05-11T03:40:35.846Z,15.29
2023-05-11T03:41:35.812Z,15.29
2023-05-11T03:42:35.795Z,15.23
2023-05-11T03:43:35.776Z,15.11
2023-05-11T03:44:35.767Z,15.22
2023-05-11T03:45:35.759Z,15.15
2023-05-11T03:46:35.863Z,15.19
2023-05-11T03:47:35.760Z,15.12
2023-05-11T03:48:35.720Z,15.15
2023-05-11T03:49:35.725Z,15.19
2023-05-11T03:50:35.705Z,15.20
2023-05-11T03:51:35.716Z,15.12
2023-05-11T03:52:35.678Z,15.15
2023-05-11T03:53:35.699Z,15.14
2023-05-11T03:54:35.660Z,15.10
2023-05-11T03:55:35.674Z,15.11
2023-05-11T03:56:35.630Z,15.12
2023-05-11T03:57:35.631Z,15.10
2023-05-11T03:58:35.618Z,15.12
2023-05-11T03:59:35.608Z,15.07
2023-05-11T04:00:35.617Z,15.08
2023-05-11T04:01:35.600Z,15.05
2023-05-11T04:02:35.635Z,15.12
2023-05-11T04:03:35.721Z,15.03
2023-05-11T04:04:35.592Z,15.11
2023-05-11T04:05:35.576Z,15.10
2023-05-11T04:06:35.533Z,15.07
2023-05-11T04:07:35.520Z,15.04
2023-05-11T04:08:35.501Z,14.99
2023-05-11T04:09:35.528Z,14.99
2023-05-11T04:10:35.525Z,14.97
2023-05-11T04:11:35.476Z,15.08
2023-05-11T04:12:35.489Z,15.04
2023-05-11T04:13:35.454Z,15.07
2023-05-11T04:14:35.466Z,14.97
2023-05-11T04:15:35.452Z,15.08
2023-05-11T04:16:35.505Z,15.08
2023-05-11T04:17:35.463Z,15.05
2023-05-11T04:18:35.474Z,15.10
2023-05-11T04:19:35.410Z,15.07
2023-05-11T04:20:35.371Z,15.08
2023-05-11T04:21:35.373Z,15.10
2023-05-11T04:22:35.356Z,15.05
2023-05-11T04:23:35.342Z,15.10
2023-05-11T04:24:35.353Z,15.08
2023-05-11T04:25:35.344Z,15.07
2023-05-11T04:26:35.305Z,15.07
2023-05-11T04:27:35.301Z,15.01
2023-05-11T04:28:35.282Z,15.01
2023-05-11T04:29:35.304Z,15.04
2023-05-11T04:30:35.285Z,15.04
2023-05-11T04:31:35.330Z,14.97
2023-05-11T04:32:35.279Z,15.03
2023-05-11T04:33:35.240Z,15.07
2023-05-11T04:34:35.224Z,15.01
2023-05-11T04:35:35.232Z,15.03
2023-05-11T04:36:35.224Z,15.05
2023-05-11T04:37:35.196Z,15.04
2023-05-11T04:38:35.185Z,15.05
2023-05-11T04:39:35.168Z,15.07
2023-05-11T04:40:35.163Z,14.99
2023-05-11T04:41:35.197Z,15.08
2023-05-11T04:42:35.137Z,15.04
2023-05-11T04:43:35.131Z,15.10
2023-05-11T04:44:35.112Z,15.04
2023-05-11T04:45:35.106Z,15.04
2023-05-11T04:46:35.122Z,15.08
2023-05-11T04:47:35.150Z,15.11
2023-05-11T04:48:35.064Z,15.01
2023-05-11T04:49:35.066Z,15.05
2023-05-11T04:50:35.060Z,15.03
2023-05-11T04:51:35.047Z,15.05
2023-05-11T04:52:35.054Z,15.08
2023-05-11T04:53:35.018Z,15.03
2023-05-11T04:54:35.004Z,15.10
2023-05-11T04:55:35.003Z,15.12
2023-05-11T04:56:34.984Z,15.07
2023-05-11T04:57:35.017Z,15.15
2023-05-11T04:58:34.974Z,15.17
2023-05-11T04:59:35.002Z,15.12
2023-05-11T05:00:34.935Z,15.20
2023-05-11T05:01:35.019Z,15.14
2023-05-11T05:02:34.966Z,15.12
2023-05-11T05:03:34.948Z,15.14
2023-05-11T05:04:36.387Z,15.19
2023-05-11T05:05:34.891Z,15.12
2023-05-11T05:06:34.882Z,15.12
2023-05-11T05:07:34.876Z,15.14
2023-05-11T05:08:34.883Z,15.22
2023-05-11T05:09:34.852Z,15.22
2023-05-11T05:10:34.836Z,15.22
2023-05-11T05:11:34.831Z,15.23
2023-05-11T05:12:34.815Z,15.27
2023-05-11T05:13:34.859Z,15.30
2023-05-11T05:14:34.794Z,15.26
2023-05-11T05:15:34.784Z,15.22
2023-05-11T05:16:34.826Z,15.26
2023-05-11T05:17:34.824Z,15.33
2023-05-11T05:18:34.874Z,15.29
2023-05-11T05:19:34.749Z,15.38
2023-05-11T05:20:34.745Z,15.32
2023-05-11T05:21:34.738Z,15.36
2023-05-11T05:22:34.721Z,15.40
2023-05-11T05:23:34.737Z,15.48
2023-05-11T05:24:34.681Z,15.40
2023-05-11T05:25:34.679Z,15.44
2023-05-11T05:26:34.664Z,15.45
2023-05-11T05:27:35.201Z,15.48
2023-05-11T05:28:34.672Z,15.44
2023-05-11T05:29:34.658Z,15.51
2023-05-11T05:30:34.640Z,15.45
2023-05-11T05:31:34.656Z,15.48
2023-05-11T05:32:34.629Z,15.47
2023-05-11T05:33:34.636Z,15.56
2023-05-11T05:34:34.579Z,15.51
2023-05-11T05:35:34.571Z,15.47
2023-05-11T05:36:34.557Z,15.56
2023-05-11T05:37:34.552Z,15.54
2023-05-11T05:38:34.558Z,15.59
2023-05-11T05:39:34.524Z,15.58
2023-05-11T05:40:34.514Z,15.62
2023-05-11T05:41:34.520Z,15.69
2023-05-11T05:42:34.499Z,15.70
2023-05-11T05:43:34.503Z,15.69
2023-05-11T05:44:34.504Z,15.76
2023-05-11T05:45:34.493Z,15.81
2023-05-11T05:46:34.562Z,15.76
2023-05-11T05:47:34.455Z,15.72
2023-05-11T05:48:34.451Z,15.70
2023-05-11T05:49:34.440Z,15.77
2023-05-11T05:50:34.404Z,15.84
2023-05-11T05:51:34.402Z,15.83
2023-05-11T05:52:34.382Z,15.85
2023-05-11T05:53:34.386Z,15.91
2023-05-11T05:54:34.386Z,15.96
2023-05-11T05:55:34.356Z,15.98
2023-05-11T05:56:34.339Z,16.00
2023-05-11T05:57:34.329Z,15.95
2023-05-11T05:58:34.321Z,16.00
2023-05-11T05:59:34.336Z,16.02
2023-05-11T06:00:34.306Z,16.08
2023-05-11T06:01:34.305Z,16.05
2023-05-11T06:02:34.345Z,16.13
2023-05-11T06:03:34.532Z,16.09
2023-05-11T06:04:34.354Z,16.18
2023-05-11T06:05:34.237Z,16.17
2023-05-11T06:06:34.228Z,16.21
2023-05-11T06:07:34.217Z,16.22
2023-05-11T06:08:34.214Z,16.28
2023-05-11T06:09:34.219Z,16.28
2023-05-11T06:10:34.213Z,16.36
2023-05-11T06:11:34.176Z,16.33
2023-05-11T06:12:34.163Z,16.29
2023-05-11T06:13:34.165Z,16.39
2023-05-11T06:14:34.144Z,16.42
2023-05-11T06:15:34.131Z,16.43
2023-05-11T06:16:34.192Z,16.42
2023-05-11T06:17:35.014Z,16.52
2023-05-11T06:18:34.139Z,16.52
2023-05-11T06:19:34.097Z,16.57
2023-05-11T06:20:34.073Z,16.59
2023-05-11T06:21:34.081Z,16.54
2023-05-11T06:22:34.078Z,16.61
2023-05-11T06:23:34.039Z,16.65
2023-05-11T06:24:34.054Z,16.62
2023-05-11T06:25:34.018Z,16.72
2023-05-11T06:26:34.011Z,16.64
2023-05-11T06:27:33.995Z,16.67
2023-05-11T06:28:34.024Z,16.67
2023-05-11T06:29:33.976Z,16.79
2023-05-11T06:30:33.967Z,16.74
2023-05-11T06:31:33.997Z,16.73
2023-05-11T06:32:33.975Z,16.74
2023-05-11T06:33:33.982Z,16.88
2023-05-11T06:34:33.926Z,16.88
2023-05-11T06:35:33.915Z,16.90
2023-05-11T06:36:33.917Z,16.91
2023-05-11T06:37:33.889Z,16.99
2023-05-11T06:38:33.914Z,17.02
2023-05-11T06:39:33.895Z,17.04
2023-05-11T06:40:33.873Z,17.10
2023-05-11T06:41:33.853Z,17.14
2023-05-11T06:42:33.844Z,17.07
2023-05-11T06:43:33.826Z,17.17
2023-05-11T06:44:33.848Z,17.19
2023-05-11T06:45:33.911Z,17.22
2023-05-11T06:46:33.834Z,17.24
2023-05-11T06:47:33.860Z,17.27
2023-05-11T06:48:33.779Z,17.34
2023-05-11T06:49:33.783Z,17.28
2023-05-11T06:50:33.762Z,17.35
2023-05-11T06:51:33.778Z,17.43
2023-05-11T06:52:33.760Z,17.49
2023-05-11T06:53:33.720Z,17.46
2023-05-11T06:54:33.719Z,17.50
2023-05-11T06:55:33.703Z,17.59
2023-05-11T06:56:33.722Z,17.50
2023-05-11T06:57:33.704Z,17.62
2023-05-11T06:58:33.675Z,17.66
2023-05-11T06:59:33.660Z,17.65
2023-05-11T07:00:33.656Z,17.66
2023-05-11T07:01:33.711Z,17.75
2023-05-11T07:02:33.702Z,17.78
2023-05-11T07:03:33.621Z,17.83
2023-05-11T07:04:33.662Z,17.88
2023-05-11T07:05:33.614Z,17.88
2023-05-11T07:06:33.591Z,17.97
2023-05-11T07:07:33.591Z,17.94
2023-05-11T07:08:33.559Z,18.06
2023-05-11T07:09:33.554Z,18.05
2023-05-11T07:10:33.539Z,18.06
2023-05-11T07:11:33.525Z,18.17
2023-05-11T07:12:33.545Z,18.17
2023-05-11T07:13:33.497Z,18.20
2023-05-11T07:14:33.490Z,18.24
2023-05-11T07:15:33.481Z,18.24
2023-05-11T07:16:33.498Z,18.31
2023-05-11T07:17:33.473Z,18.28
2023-05-11T07:18:33.526Z,18.33
2023-05-11T07:19:33.442Z,18.45
2023-05-11T07:20:33.430Z,18.42
2023-05-11T07:21:33.456Z,18.48
2023-05-11T07:22:33.405Z,18.49
2023-05-11T07:23:33.421Z,18.54
2023-05-11T07:24:33.383Z,18.60
2023-05-11T07:25:33.378Z,18.63
2023-05-11T07:26:33.373Z,18.71
2023-05-11T07:27:33.347Z,18.67
2023-05-11T07:28:33.380Z,18.74
2023-05-11T07:29:33.348Z,18.83
2023-05-11T07:30:33.320Z,18.88
2023-05-11T07:31:33.328Z,18.85
2023-05-11T07:32:33.348Z,18.89
2023-05-11T07:33:33.308Z,18.97
2023-05-11T07:34:33.296Z,18.93
2023-05-11T07:35:33.264Z,18.94
2023-05-11T07:36:33.258Z,19.07
2023-05-11T07:37:33.258Z,19.13
2023-05-11T07:38:33.225Z,19.17
2023-05-11T07:39:33.239Z,19.20
2023-05-11T07:40:33.207Z,19.27
2023-05-11T07:41:33.186Z,19.34
2023-05-11T07:42:33.225Z,19.39
2023-05-11T07:43:33.178Z,19.38
2023-05-11T07:44:33.189Z,19.39
2023-05-11T07:45:33.150Z,19.45
2023-05-11T07:46:33.178Z,19.53
2023-05-11T07:47:36.021Z,19.53
2023-05-11T07:48:33.134Z,19.62
2023-05-11T07:49:43.031Z,19.60
2023-05-11T07:50:34.100Z,19.70
2023-05-11T07:51:34.017Z,19.72
2023-05-11T07:52:33.079Z,19.75
2023-05-11T07:53:33.090Z,19.89
2023-05-11T07:54:33.058Z,19.84
2023-05-11T07:55:33.069Z,19.92
2023-05-11T07:56:33.034Z,19.96
2023-05-11T07:57:33.020Z,20.07
2023-05-11T07:58:33.043Z,20.07
2023-05-11T07:59:32.996Z,20.12
2023-05-11T08:00:33.012Z,20.11
2023-05-11T08:01:32.987Z,20.27
2023-05-11T08:02:33.059Z,20.34
2023-05-11T08:03:33.043Z,20.27
2023-05-11T08:04:32.948Z,20.27
2023-05-11T08:05:32.978Z,20.42
2023-05-11T08:06:32.925Z,20.44
2023-05-11T08:07:32.913Z,20.42
2023-05-11T08:08:32.931Z,20.50
2023-05-11T08:09:32.911Z,20.56
2023-05-11T08:10:32.904Z,20.61
2023-05-11T08:11:32.877Z,20.65
2023-05-11T08:12:32.869Z,20.73
2023-05-11T08:13:32.879Z,20.77
2023-05-11T08:14:32.872Z,20.85
2023-05-11T08:15:32.836Z,20.85
2023-05-11T08:16:32.883Z,20.95
2023-05-11T08:17:32.823Z,20.97
2023-05-11T08:18:32.873Z,21.07
2023-05-11T08:19:32.785Z,21.11
2023-05-11T08:20:32.800Z,21.19
2023-05-11T08:21:32.772Z,21.20
2023-05-11T08:22:32.771Z,21.29
2023-05-11T08:23:32.758Z,21.30
2023-05-11T08:24:32.741Z,21.40
2023-05-11T08:25:32.768Z,21.43
2023-05-11T08:26:32.713Z,21.43
2023-05-11T08:27:32.703Z,21.53
2023-05-11T08:28:32.690Z,21.51
2023-05-11T08:29:32.679Z,21.59
2023-05-11T08:30:32.704Z,21.60
2023-05-11T08:31:32.699Z,21.71
2023-05-11T08:32:40.693Z,21.69
2023-05-11T08:33:38.329Z,21.85
2023-05-11T08:34:33.745Z,21.78
2023-05-11T08:35:32.646Z,21.91
2023-05-11T08:36:32.604Z,22.01
2023-05-11T08:37:32.587Z,21.97
2023-05-11T08:38:32.601Z,22.11
2023-05-11T08:39:46.005Z,22.09
2023-05-11T08:40:33.593Z,22.12
2023-05-11T08:41:32.574Z,22.15
2023-05-11T08:42:32.542Z,22.27
2023-05-11T08:43:32.524Z,22.25
2023-05-11T08:44:32.524Z,22.36
2023-05-11T08:45:32.576Z,22.43
2023-05-11T08:46:32.532Z,22.48
2023-05-11T08:47:32.514Z,22.48
2023-05-11T08:48:32.489Z,22.48
2023-05-11T08:49:32.470Z,22.52
2023-05-11T08:50:32.488Z,22.64
2023-05-11T08:51:32.445Z,22.77
2023-05-11T08:52:32.435Z,22.68
2023-05-11T08:53:32.421Z,22.86
2023-05-11T08:54:32.423Z,22.86
2023-05-11T08:55:32.433Z,22.88
2023-05-11T08:56:32.393Z,23.01
2023-05-11T08:57:32.395Z,23.03
2023-05-11T08:58:32.373Z,23.10
2023-05-11T08:59:32.365Z,23.11
2023-05-11T09:00:32.375Z,23.22
2023-05-11T09:01:32.469Z,23.23
2023-05-11T09:02:32.392Z,23.26
2023-05-11T09:03:32.319Z,23.31
2023-05-11T09:04:32.311Z,23.34
2023-05-11T09:05:32.367Z,23.34
2023-05-11T09:06:32.290Z,23.34
2023-05-11T09:07:32.271Z,23.49
2023-05-11T09:08:32.265Z,23.48
2023-05-11T09:09:32.260Z,23.52
2023-05-11T09:10:32.284Z,23.55
2023-05-11T09:11:32.228Z,23.60
2023-05-11T09:12:32.215Z,23.66
2023-05-11T09:13:32.248Z,23.69
2023-05-11T09:14:32.191Z,23.70
2023-05-11T09:15:37.261Z,23.78
2023-05-11T09:16:37.224Z,23.73
2023-05-11T09:17:32.222Z,23.84
2023-05-11T09:18:32.195Z,23.97
2023-05-11T09:19:32.161Z,23.91
2023-05-11T09:20:32.152Z,23.98
2023-05-11T09:21:32.139Z,23.98
2023-05-11T09:22:33.822Z,24.03
2023-05-11T09:23:32.095Z,24.10
2023-05-11T09:24:32.086Z,24.22
2023-05-11T09:25:32.103Z,24.21
2023-05-11T09:26:32.092Z,24.34
2023-05-11T09:27:32.051Z,24.36
2023-05-11T09:28:36.014Z,24.37
2023-05-11T09:29:32.060Z,24.36
2023-05-11T09:30:32.033Z,24.53
2023-05-11T09:31:32.121Z,24.58
2023-05-11T09:32:32.050Z,24.58
2023-05-11T09:33:31.994Z,24.56
2023-05-11T09:34:31.994Z,24.66
2023-05-11T09:35:31.993Z,24.66
2023-05-11T09:36:31.968Z,24.82
2023-05-11T09:37:31.983Z,24.78
2023-05-11T09:38:31.942Z,24.79
2023-05-11T09:41:34.700Z,24.96
2023-05-11T09:42:31.923Z,24.97
2023-05-11T09:43:31.909Z,25.11
2023-05-11T09:44:31.877Z,25.14
2023-05-11T09:45:31.907Z,25.12
2023-05-11T09:46:31.895Z,25.23
2023-05-11T09:47:31.907Z,25.31
2023-05-11T09:48:32.035Z,25.31
2023-05-11T09:49:31.818Z,25.41
2023-05-11T09:50:31.839Z,25.38
2023-05-11T09:51:31.809Z,25.51
2023-05-11T09:52:31.802Z,25.56
2023-05-11T09:53:31.795Z,25.66
2023-05-11T09:54:31.797Z,25.73
2023-05-11T09:55:31.770Z,25.86
2023-05-11T09:56:31.787Z,25.90
2023-05-11T09:57:31.779Z,26.08
2023-05-11T09:58:31.741Z,26.21
2023-05-11T09:59:31.731Z,26.30
2023-05-11T10:00:31.717Z,26.49
2023-05-11T10:01:31.885Z,26.58
2023-05-11T10:02:31.884Z,26.65
2023-05-11T10:03:31.775Z,26.80
2023-05-11T10:04:31.867Z,26.79
2023-05-11T10:05:31.664Z,26.95
2023-05-11T10:06:31.652Z,27.04
2023-05-11T10:07:31.631Z,27.10
2023-05-11T10:08:31.668Z,27.12
2023-05-11T10:09:31.610Z,27.22
2023-05-11T10:10:31.605Z,27.23
2023-05-11T10:11:31.599Z,27.30
2023-05-11T10:12:31.587Z,27.40
2023-05-11T10:13:31.578Z,27.47
2023-05-11T10:14:31.586Z,27.64
2023-05-11T10:15:31.570Z,27.64
2023-05-11T10:16:31.659Z,27.75
2023-05-11T10:17:31.610Z,27.76
2023-05-11T10:18:31.518Z,27.90
2023-05-11T10:19:31.530Z,28.03
2023-05-11T10:20:31.497Z,28.06
2023-05-11T10:21:31.529Z,28.15
2023-05-11T10:22:31.497Z,28.12
2023-05-11T10:23:31.469Z,28.07
2023-05-11T10:24:31.488Z,28.12
2023-05-11T10:25:31.441Z,28.25
2023-05-11T10:26:31.430Z,28.22
2023-05-11T10:27:31.419Z,28.25
2023-05-11T10:28:31.420Z,28.28
2023-05-11T10:29:31.420Z,28.27
2023-05-11T10:30:31.398Z,28.22
2023-05-11T10:31:31.421Z,28.24
2023-05-11T10:32:31.461Z,28.16
2023-05-11T10:33:31.479Z,28.16
2023-05-11T10:34:31.385Z,28.16
2023-05-11T10:35:31.332Z,28.27
2023-05-11T10:36:31.319Z,28.13
2023-05-11T10:37:31.338Z,28.20
2023-05-11T10:38:31.301Z,28.20
2023-05-11T10:39:31.310Z,28.31
2023-05-11T10:40:31.279Z,28.32
2023-05-11T10:41:31.268Z,28.34
2023-05-11T10:42:31.254Z,28.31
2023-05-11T10:43:31.240Z,28.35
2023-05-11T10:44:31.264Z,28.30
2023-05-11T10:45:31.253Z,28.35
2023-05-11T10:46:31.294Z,28.35
2023-05-11T10:47:31.230Z,28.44
2023-05-11T10:48:31.186Z,28.35
2023-05-11T10:49:31.238Z,28.42
2023-05-11T10:50:31.168Z,28.42
2023-05-11T10:51:31.162Z,28.40
2023-05-11T10:52:31.148Z,28.46
2023-05-11T10:53:31.167Z,28.46
2023-05-11T10:54:31.121Z,28.42
2023-05-11T10:55:31.115Z,28.46
2023-05-11T10:56:31.112Z,28.43
2023-05-11T10:57:33.498Z,28.42
2023-05-11T10:58:31.095Z,28.38
2023-05-11T10:59:31.073Z,28.44
2023-05-11T11:00:31.180Z,28.42
2023-05-11T11:01:31.086Z,28.57
2023-05-11T11:02:31.058Z,28.46
2023-05-11T11:03:31.054Z,28.64
2023-05-11T11:04:31.024Z,28.53
2023-05-11T11:05:31.067Z,28.50
2023-05-11T11:06:31.008Z,28.52
2023-05-11T11:07:31.013Z,28.46
2023-05-11T11:08:31.003Z,28.53
2023-05-11T11:09:30.965Z,28.52
2023-05-11T11:10:30.980Z,28.52
2023-05-11T11:11:30.949Z,28.50
2023-05-11T11:12:30.932Z,28.46
2023-05-11T11:13:30.940Z,28.57
2023-05-11T11:14:30.902Z,28.56
2023-05-11T11:15:30.922Z,28.62
2023-05-11T11:16:31.000Z,28.65
2023-05-11T11:17:30.912Z,28.65
2023-05-11T11:18:30.943Z,28.71
2023-05-11T11:19:30.873Z,28.65
2023-05-11T11:20:30.867Z,28.69
2023-05-11T11:21:30.862Z,28.69
2023-05-11T11:22:30.830Z,28.69
2023-05-11T11:23:30.821Z,28.66
2023-05-11T11:24:30.852Z,28.77
2023-05-11T11:25:30.828Z,28.72
2023-05-11T11:26:30.885Z,28.81
2023-05-11T11:27:30.792Z,28.84
2023-05-11T11:28:30.882Z,28.81
2023-05-11T11:29:30.838Z,28.91
2023-05-11T11:30:30.968Z,28.90
2023-05-11T11:31:30.764Z,28.94
2023-05-11T11:32:30.931Z,28.90
2023-05-11T11:33:30.712Z,28.98
2023-05-11T11:34:30.707Z,29.07
2023-05-11T11:35:30.698Z,29.04
2023-05-11T11:36:30.697Z,29.09
2023-05-11T11:37:30.706Z,29.13
2023-05-11T11:38:30.665Z,29.13
2023-05-11T11:39:30.658Z,29.22
2023-05-11T11:40:36.544Z,29.22
2023-05-11T11:41:31.649Z,29.29
2023-05-11T11:42:30.630Z,29.31
2023-05-11T11:43:30.601Z,29.19
2023-05-11T11:44:30.588Z,29.24
2023-05-11T11:45:30.589Z,29.24
2023-05-11T11:46:30.620Z,29.34
2023-05-11T11:47:30.566Z,29.29
2023-05-11T11:48:30.543Z,29.40
2023-05-11T11:49:30.545Z,29.40
2023-05-11T11:50:30.526Z,29.40
2023-05-11T11:51:30.558Z,29.41
2023-05-11T11:52:30.541Z,29.49
2023-05-11T11:53:30.664Z,29.43
2023-05-11T11:54:30.483Z,29.55
2023-05-11T11:55:30.486Z,29.54
2023-05-11T11:56:30.461Z,29.61
2023-05-11T11:57:30.471Z,29.58
2023-05-11T11:58:30.449Z,29.59
2023-05-11T11:59:30.429Z,29.68
2023-05-11T12:00:30.421Z,29.63
2023-05-11T12:01:30.425Z,29.71
2023-05-11T12:02:30.539Z,29.70
2023-05-11T12:03:30.591Z,29.70
2023-05-11T12:04:30.481Z,29.68
2023-05-11T12:05:30.373Z,29.78
2023-05-11T12:06:30.351Z,29.78
2023-05-11T12:07:30.368Z,29.73
2023-05-11T12:08:30.335Z,29.70
2023-05-11T12:09:30.378Z,29.76
2023-05-11T12:10:30.333Z,29.77
2023-05-11T12:11:30.339Z,29.80
2023-05-11T12:12:30.310Z,29.78
2023-05-11T12:13:30.286Z,29.81
2023-05-11T12:14:30.273Z,29.78
2023-05-11T12:15:30.276Z,29.84
2023-05-11T12:16:30.400Z,29.77
2023-05-11T12:17:30.311Z,29.77
2023-05-11T12:18:30.235Z,29.78
2023-05-11T12:19:30.217Z,29.78
2023-05-11T12:20:30.196Z,29.66
2023-05-11T12:21:30.266Z,29.65
2023-05-11T12:22:30.203Z,29.65
2023-05-11T12:23:30.191Z,29.68
2023-05-11T12:24:30.167Z,29.70
2023-05-11T12:25:30.179Z,29.66
2023-05-11T12:26:30.196Z,29.63
2023-05-11T12:27:30.151Z,29.73
2023-05-11T12:28:30.121Z,29.68
2023-05-11T12:29:30.116Z,29.68
2023-05-11T12:30:30.104Z,29.68
2023-05-11T12:31:30.141Z,29.68
2023-05-11T12:32:30.184Z,29.61
2023-05-11T12:33:30.068Z,29.62
2023-05-11T12:34:30.052Z,29.65
2023-05-11T12:35:30.102Z,29.62
2023-05-11T12:36:30.040Z,29.55
2023-05-11T12:37:30.065Z,29.65
2023-05-11T12:38:30.009Z,29.59
2023-05-11T12:39:30.005Z,29.55
2023-05-11T12:40:29.990Z,29.58
2023-05-11T12:41:30.048Z,29.54
2023-05-11T12:42:29.983Z,29.62
2023-05-11T12:43:29.968Z,29.68
2023-05-11T12:44:29.963Z,29.61
2023-05-11T12:45:29.944Z,29.56
2023-05-11T12:46:29.973Z,29.59
2023-05-11T12:47:30.031Z,29.65
2023-05-11T12:48:29.911Z,29.61
2023-05-11T12:49:29.901Z,29.61
2023-05-11T12:50:29.896Z,29.54
2023-05-11T12:51:29.911Z,29.59
2023-05-11T12:52:29.872Z,29.56
2023-05-11T12:53:29.864Z,29.61
2023-05-11T12:54:29.846Z,29.63